SKPC/PCR METAR and TAF weather

Enter ICAO airport designator
Station Type Date Time Source
SKPC METAR 2021/07/15 12:00 UTC NOAA

SKPC 151200Z 01003KT 9999 FEW015 SCT070 24/22 Q1013 RMK A2993


Station Type Date Time Source
SKPC Decoded METAR 2021/07/15 12:00 UTC NOAA

Puerto Carreno / A. Guauquea, Colombia (SKPC) 06-10N 067-30W
Jul 15, 2021 - 08:00 AM EDT / 2021.07.15 1200 UTC
Wind: from the N (010 degrees) at 3 MPH (3 KT):0
Visibility: greater than 7 mile(s):0
Sky conditions: partly cloudy
Temperature: 75 F (24 C)
Dew Point: 71 F (22 C)
Relative Humidity: 88%
Pressure (altimeter): 29.91 in. Hg (1013 hPa)
ob: SKPC 151200Z 01003KT 9999 FEW015 SCT070 24/22 Q1013 RMK A2993
cycle: 12

Station Type Date Time Source
SKPC TAF UTC NOAA

Error!

Example: see airport list